Time;durP1;ratioP1;P1;durP2;ratioP2;P2;SDS_P1;SDS_P2;PMS_P1;PMS_P2;Temp;Humidity;BMP_temperature;BMP_pressure;BME280_temperature;BME280_humidity;BME280_pressure;Samples;Min_cycle;Max_cycle;Signal;HPM_P1;HPM_P2
2023/08/26 03:33:06;;;;;;;971.33;447.50;;;14.20;99.90;;;;;;6314415;22;22025;-91
2023/08/26 03:36:14;;;;;;;;;;;;;;;;;;;;;
2023/08/26 06:30:37;;;;;;;1209.53;544.53;;;15.40;99.90;;;;;;6277354;22;20024;-90
2023/08/26 06:42:35;;;;;;;1253.10;571.80;;;15.40;99.90;;;;;;6316734;22;20618;-88
2023/08/26 06:45:55;;;;;;;1253.00;564.23;;;15.40;99.90;;;;;;6310546;22;20023;-90
2023/08/26 06:49:02;;;;;;;1221.50;555.73;;;15.70;99.90;;;;;;6208878;22;20016;-88
2023/08/26 06:52:23;;;;;;;;;;;;;;;;;;;;;
2023/08/26 06:58:33;;;;;;;1261.57;565.70;;;15.40;99.90;;;;;;5982068;24;20064;-91
2023/08/26 07:01:06;;;;;;;1222.77;553.27;;;15.50;99.90;;;;;;5981400;23;20116;-88
2023/08/26 07:03:32;;;;;;;1222.17;557.07;;;15.50;99.90;;;;;;5958091;24;20027;-87
2023/08/26 07:05:58;;;;;;;1276.03;561.73;;;15.50;99.90;;;;;;5958661;24;20134;-86
2023/08/26 07:08:23;;;;;;;1228.80;558.53;;;15.50;99.90;;;;;;5981581;23;20020;-87
2023/08/26 07:11:32;;;;;;;1267.53;568.40;;;15.50;99.90;;;;;;5958623;23;20020;-86
2023/08/26 07:13:58;;;;;;;1274.50;568.17;;;15.60;99.90;;;;;;5982916;23;20511;-87
2023/08/26 07:16:29;;;;;;;1220.33;566.93;;;15.50;99.90;;;;;;5982792;24;20443;-87
2023/08/26 07:18:58;;;;;;;1223.93;557.03;;;15.60;99.90;;;;;;5982774;24;20028;-87
2023/08/26 07:21:24;;;;;;;1264.77;564.80;;;15.70;99.90;;;;;;5987213;23;20051;-86
2023/08/26 07:28:07;;;;;;;1258.23;561.53;;;15.80;99.90;;;;;;6187189;23;20041;-87
2023/08/26 07:30:33;;;;;;;1259.07;565.60;;;15.90;99.90;;;;;;6192217;22;20019;-87
2023/08/26 07:32:59;;;;;;;1252.80;562.13;;;15.90;99.90;;;;;;6310535;22;20025;-87
2023/08/26 07:35:24;;;;;;;1214.63;560.37;;;16.00;99.90;;;;;;6308881;22;20012;-87
2023/08/26 07:37:50;;;;;;;1215.43;555.70;;;16.00;99.90;;;;;;6283819;22;20327;-86
2023/08/26 07:40:19;;;;;;;1216.17;548.07;;;16.00;99.90;;;;;;6283584;22;20392;-86
2023/08/26 07:42:45;;;;;;;1200.67;547.03;;;16.10;99.90;;;;;;6310419;22;20090;-86
2023/08/26 07:45:14;;;;;;;1238.67;560.50;;;16.30;99.90;;;;;;6310420;22;20026;-86
2023/08/26 07:47:43;;;;;;;1203.27;545.20;;;16.40;99.90;;;;;;6286755;22;20027;-86
2023/08/26 07:50:10;;;;;;;1201.67;541.07;;;16.60;99.90;;;;;;6310846;22;20031;-85
2023/08/26 07:52:36;;;;;;;1196.03;539.03;;;16.60;99.90;;;;;;6310814;22;20027;-87
2023/08/26 07:58:45;;;;;;;1250.77;554.80;;;17.50;99.90;;;;;;6314436;22;20060;-88
2023/08/26 08:01:13;;;;;;;1259.57;551.27;;;17.30;99.90;;;;;;6310318;22;20027;-87
2023/08/26 08:03:39;;;;;;;1257.67;545.00;;;17.40;99.90;;;;;;6285597;22;20031;-87
2023/08/26 08:13:19;;;;;;;1232.10;551.20;;;17.90;99.90;;;;;;6347577;22;20013;-86
2023/08/26 08:15:44;;;;;;;1229.10;550.23;;;18.00;99.90;;;;;;6321593;22;20015;-85
2023/08/26 08:18:10;;;;;;;1303.43;550.07;;;18.20;99.90;;;;;;6297163;22;20074;-85
2023/08/26 08:20:36;;;;;;;1299.03;566.97;;;18.30;99.90;;;;;;6323225;22;20042;-83
2023/08/26 08:23:03;;;;;;;1295.10;543.60;;;18.50;99.90;;;;;;6300222;22;20010;-86
2023/08/26 08:29:10;;;;;;;1259.37;618.37;;;18.80;99.90;;;;;;6354798;22;20037;-85
2023/08/26 08:31:36;;;;;;;1310.13;586.03;;;18.90;99.90;;;;;;6304479;22;20022;-86
2023/08/26 08:34:03;;;;;;;1296.40;581.20;;;19.00;99.90;;;;;;6331090;22;20026;-85
2023/08/26 08:36:29;;;;;;;1241.47;619.30;;;19.00;99.90;;;;;;6359741;22;20015;-86
2023/08/26 08:39:01;;;;;;;1241.23;604.67;;;19.00;99.90;;;;;;6330911;22;20011;-89
2023/08/26 08:41:30;;;;;;;1205.27;536.47;;;19.10;99.90;;;;;;6358545;22;20089;-89
2023/08/26 08:44:03;;;;;;;1286.10;535.93;;;19.20;99.90;;;;;;6303984;22;20018;-87
2023/08/26 08:46:29;;;;;;;1016.43;488.93;;;19.30;99.90;;;;;;6328750;22;20018;-85
2023/08/26 08:48:55;;;;;;;1236.57;608.37;;;19.40;99.90;;;;;;6335525;22;20651;-87
2023/08/26 08:51:30;;;;;;;1274.57;705.03;;;19.50;99.90;;;;;;6335723;22;20011;-85
2023/08/26 08:53:57;;;;;;;1261.95;659.53;;;19.60;99.90;;;;;;6327812;22;20018;-85
2023/08/26 08:56:23;;;;;;;1246.87;620.87;;;19.70;99.90;;;;;;6327383;22;20401;-87
2023/08/26 08:58:53;;;;;;;1220.50;523.60;;;19.80;99.90;;;;;;6331372;22;20038;-87
2023/08/26 09:01:23;;;;;;;1195.60;532.63;;;19.80;99.90;;;;;;6359860;22;20010;-87
2023/08/26 09:03:49;;;;;;;1190.93;518.50;;;19.90;99.90;;;;;;6359819;22;20026;-88
2023/08/26 09:06:17;;;;;;;1203.03;542.00;;;19.90;99.90;;;;;;6359769;22;20022;-87
2023/08/26 09:08:45;;;;;;;1247.27;545.13;;;20.10;99.90;;;;;;6331960;22;20082;-89
2023/08/26 09:11:33;;;;;;;1186.20;522.97;;;20.10;99.90;;;;;;6335851;22;20094;-90
2023/08/26 09:13:58;;;;;;;1186.83;539.60;;;20.20;99.90;;;;;;6349221;22;20018;-87
2023/08/26 09:16:38;;;;;;;1306.43;583.10;;;20.40;99.90;;;;;;6358910;22;20037;-89
2023/08/26 09:19:09;;;;;;;1281.50;551.67;;;20.40;99.90;;;;;;6304884;22;20141;-89
2023/08/26 09:21:43;;;;;;;1262.77;545.17;;;20.60;99.90;;;;;;6332049;22;20014;-88
2023/08/26 09:24:13;;;;;;;1184.87;549.77;;;20.70;99.90;;;;;;6332914;22;20019;-87
2023/08/26 09:32:45;;;;;;;1219.10;540.30;;;20.90;99.90;;;;;;6319089;22;19914;-89
2023/08/26 09:38:49;;;;;;;1269.43;549.03;;;20.90;99.90;;;;;;6323918;22;20023;-90
2023/08/26 09:45:17;;;;;;;1264.23;557.87;;;21.20;99.90;;;;;;6362310;22;20333;-92
2023/08/26 09:50:58;;;;;;;1189.70;531.03;;;21.50;99.90;;;;;;6340550;22;20024;-92
2023/08/26 09:53:31;;;;;;;1260.50;550.87;;;21.40;99.90;;;;;;6321538;22;20106;-93
2023/08/26 09:55:58;;;;;;;1163.27;525.97;;;21.30;99.90;;;;;;6304413;22;20022;-92
2023/08/26 09:58:25;;;;;;;1209.43;561.20;;;21.20;99.90;;;;;;6329921;22;20041;-94
2023/08/26 10:01:30;;;;;;;1124.97;523.63;;;21.10;99.90;;;;;;6329808;22;20030;-92
2023/08/26 10:04:04;;;;;;;1204.30;555.73;;;21.00;99.90;;;;;;6184010;23;20017;-92
2023/08/26 10:06:33;;;;;;;1207.30;550.57;;;20.60;99.90;;;;;;6233923;23;20302;-94
2023/08/26 10:09:09;;;;;;;1181.77;557.67;;;20.50;99.90;;;;;;6206321;23;20024;-90
2023/08/26 10:11:40;;;;;;;1102.47;533.20;;;20.50;99.90;;;;;;6176157;23;20013;-94
2023/08/26 10:14:19;;;;;;;1108.10;526.03;;;20.50;99.90;;;;;;6197555;23;20486;-95
2023/08/26 10:16:47;;;;;;;1158.47;555.93;;;20.40;99.90;;;;;;6170099;23;20016;-94
2023/08/26 10:19:16;;;;;;;1117.07;521.73;;;20.10;99.90;;;;;;6197692;23;20055;-90
2023/08/26 10:21:57;;;;;;;1180.10;585.27;;;20.00;99.90;;;;;;6169369;23;20082;-93
2023/08/26 10:31:45;;;;;;;1304.43;585.73;;;19.40;99.90;;;;;;6134094;23;20041;-92
2023/08/26 10:34:11;;;;;;;1298.40;568.63;;;19.10;99.90;;;;;;6158535;23;20157;-90
2023/08/26 10:36:48;;;;;;;1286.63;554.33;;;18.80;99.90;;;;;;6157393;23;20021;-91
2023/08/26 10:39:21;;;;;;;1349.93;572.53;;;18.60;99.90;;;;;;6107638;23;20053;-91
2023/08/26 10:42:17;;;;;;;1275.00;603.07;;;18.50;99.90;;;;;;6214513;23;20437;-90
2023/08/26 10:44:49;;;;;;;1299.50;573.00;;;18.10;99.90;;;;;;6191511;23;20062;-91
2023/08/26 10:47:45;;;;;;;1235.63;601.53;;;17.90;99.90;;;;;;6218039;23;20017;-90
2023/08/26 10:50:44;;;;;;;1228.10;568.20;;;17.70;99.90;;;;;;6214649;23;20031;-89
2023/08/26 10:53:24;;;;;;;1243.93;539.67;;;17.50;99.90;;;;;;6192362;23;20021;-89
2023/08/26 10:55:52;;;;;;;1176.53;541.10;;;17.40;99.90;;;;;;6166386;23;20024;-90
2023/08/26 10:59:04;;;;;;;1078.03;541.20;;;17.30;99.90;;;;;;6164238;23;20470;-91
2023/08/26 11:01:35;;;;;;;983.37;480.33;;;17.10;99.90;;;;;;6189935;23;20260;-89
2023/08/26 11:04:03;;;;;;;1016.87;542.10;;;17.40;99.90;;;;;;6189479;23;20322;-89
2023/08/26 11:06:38;;;;;;;931.03;466.30;;;17.50;99.90;;;;;;6265145;22;20731;-89
2023/08/26 11:09:10;;;;;;;861.85;521.15;;;17.70;99.90;;;;;;6307590;22;20622;-88
2023/08/26 11:11:35;;;;;;;919.03;468.70;;;17.70;99.90;;;;;;6281764;22;20055;-91
2023/08/26 11:14:01;;;;;;;1211.97;558.60;;;17.90;99.90;;;;;;6282426;22;20045;-88
2023/08/26 11:16:28;;;;;;;985.23;537.43;;;18.10;99.90;;;;;;6308337;22;20516;-88
2023/08/26 11:18:56;;;;;;;868.13;530.17;;;18.40;99.90;;;;;;6310078;22;20090;-93
2023/08/26 11:21:23;;;;;;;877.93;471.50;;;18.50;99.90;;;;;;6308809;22;20580;-94
2023/08/26 11:23:51;;;;;;;900.87;469.77;;;18.60;99.90;;;;;;6309008;22;20249;-91
2023/08/26 11:26:20;;;;;;;892.80;475.03;;;18.70;99.90;;;;;;6308898;22;20242;-91
2023/08/26 11:28:48;;;;;;;861.87;527.90;;;19.10;99.90;;;;;;6308376;22;20258;-92
2023/08/26 11:31:14;;;;;;;851.13;526.33;;;19.00;99.90;;;;;;6310709;22;20273;-90
2023/08/26 11:33:40;;;;;;;862.53;525.00;;;19.10;99.90;;;;;;6310217;22;20260;-91
2023/08/26 11:36:06;;;;;;;821.43;522.37;;;19.20;99.90;;;;;;6310874;22;20234;-93
2023/08/26 11:38:37;;;;;;;811.20;522.07;;;19.20;99.90;;;;;;6307923;22;20015;-89
2023/08/26 11:41:04;;;;;;;867.83;481.57;;;19.40;99.90;;;;;;6309270;22;20022;-91
2023/08/26 11:43:34;;;;;;;835.47;522.10;;;19.60;99.90;;;;;;6308378;22;20647;-91
2023/08/26 11:46:00;;;;;;;894.20;484.87;;;19.80;99.90;;;;;;6310282;22;20643;-92
2023/08/26 11:48:27;;;;;;;851.57;530.53;;;20.10;99.90;;;;;;6310093;22;20015;-93
2023/08/26 11:51:03;;;;;;;883.07;489.20;;;20.30;99.90;;;;;;6310667;22;20034;-90
2023/08/26 11:53:30;;;;;;;1089.13;518.20;;;20.40;99.90;;;;;;6310049;22;20330;-88
2023/08/26 11:55:56;;;;;;;993.37;508.37;;;20.40;99.90;;;;;;6308310;22;20120;-88
2023/08/26 11:58:22;;;;;;;1014.87;524.53;;;20.40;99.90;;;;;;6280813;22;20026;-87
2023/08/26 12:00:50;;;;;;;990.87;553.37;;;20.60;99.90;;;;;;6305990;22;20011;-87
2023/08/26 12:03:18;;;;;;;1088.00;551.17;;;20.70;99.90;;;;;;6305623;22;20019;-88
2023/08/26 12:05:48;;;;;;;1039.80;554.77;;;20.50;99.90;;;;;;6305493;22;20016;-89
2023/08/26 12:08:19;;;;;;;1018.70;548.83;;;20.30;99.90;;;;;;6307092;22;20260;-88
2023/08/26 12:10:49;;;;;;;1034.07;552.40;;;20.10;99.90;;;;;;6305570;22;20242;-87
2023/08/26 12:13:16;;;;;;;1131.70;549.90;;;20.10;99.90;;;;;;6305924;22;20015;-87
2023/08/26 12:15:42;;;;;;;1256.57;579.90;;;20.30;99.90;;;;;;6280305;22;20023;-87
2023/08/26 12:18:11;;;;;;;1152.33;652.77;;;20.50;99.90;;;;;;6280513;22;20465;-87
2023/08/26 12:20:40;;;;;;;1075.20;607.40;;;20.50;99.90;;;;;;6308222;22;20026;-87
2023/08/26 12:23:16;;;;;;;1038.03;671.03;;;20.50;99.90;;;;;;6281518;22;20061;-89
2023/08/26 12:25:42;;;;;;;1040.43;617.60;;;20.50;99.90;;;;;;6306815;22;20392;-86
2023/08/26 12:28:24;;;;;;;1003.63;550.00;;;20.50;99.90;;;;;;6307937;22;20449;-89
2023/08/26 12:30:59;;;;;;;958.43;543.40;;;20.50;99.90;;;;;;6306407;22;20319;-89
2023/08/26 12:33:25;;;;;;;1034.83;613.90;;;20.60;99.90;;;;;;6281190;22;20017;-88
2023/08/26 12:35:54;;;;;;;1037.77;594.77;;;20.70;99.90;;;;;;6307372;22;20097;-88
2023/08/26 12:38:20;;;;;;;1034.13;590.60;;;20.80;99.90;;;;;;6306973;22;20007;-87
2023/08/26 12:40:49;;;;;;;1048.87;547.13;;;20.70;99.90;;;;;;6286376;22;20498;-86
2023/08/26 12:43:22;;;;;;;1044.07;557.33;;;21.10;99.90;;;;;;6319475;22;20019;-87
2023/08/26 12:45:48;;;;;;;1047.07;551.37;;;21.50;99.90;;;;;;6311549;22;20069;-87
2023/08/26 12:48:14;;;;;;;1019.20;540.20;;;21.60;99.90;;;;;;6309193;22;20023;-87
2023/08/26 12:50:42;;;;;;;1040.77;564.73;;;21.90;99.90;;;;;;6308942;22;20079;-87
2023/08/26 12:53:08;;;;;;;982.37;562.87;;;22.10;99.90;;;;;;6306860;22;20015;-88
2023/08/26 12:55:34;;;;;;;1083.73;557.60;;;22.30;99.90;;;;;;6305260;22;20043;-87
2023/08/26 12:58:05;;;;;;;928.13;571.13;;;22.50;99.90;;;;;;6306291;22;20023;-88
2023/08/26 13:00:39;;;;;;;864.57;544.13;;;22.60;99.90;;;;;;6307164;22;20065;-87
2023/08/26 13:03:05;;;;;;;499.35;296.05;;;22.80;99.90;;;;;;6309826;22;20022;-85
2023/08/26 13:07:56;;;;;;;201.05;185.98;;;23.00;99.90;;;;;;6320512;22;20019;-89
2023/08/26 13:10:25;;;;;;;1.25;0.30;;;23.10;99.90;;;;;;6311375;22;20066;-90
2023/08/26 13:12:51;;;;;;;0.45;0.20;;;23.20;99.90;;;;;;6310485;22;20023;-84
2023/08/26 13:15:46;;;;;;;3.85;3.60;;;23.30;99.90;;;;;;6287009;22;20287;-85
2023/08/26 13:18:11;;;;;;;44.20;41.20;;;23.30;99.90;;;;;;6250959;23;20458;-85
2023/08/26 13:20:40;;;;;;;1.45;0.20;;;23.30;99.90;;;;;;6251179;23;20020;-85
2023/08/26 13:23:12;;;;;;;0.80;0.20;;;23.10;99.90;;;;;;6225294;23;20026;-83
2023/08/26 13:25:38;;;;;;;0.25;0.17;;;22.90;99.90;;;;;;6202095;23;20371;-85
2023/08/26 13:28:07;;;;;;;0.47;0.20;;;22.80;99.90;;;;;;6230126;23;20016;-85
2023/08/26 13:30:33;;;;;;;0.40;0.20;;;22.60;99.90;;;;;;6228589;23;20042;-85
2023/08/26 13:32:59;;;;;;;0.82;0.20;;;22.30;99.90;;;;;;6228331;23;20096;-86
2023/08/26 13:35:30;;;;;;;2.05;0.30;;;22.10;99.90;;;;;;6231775;23;20020;-89
2023/08/26 13:37:59;;;;;;;0.82;0.30;;;21.90;99.90;;;;;;6255759;23;20085;-88
2023/08/26 14:20:25;;;;;;;1259.20;826.53;;;22.90;99.90;;;;;;6316427;22;20078;-88
2023/08/26 14:30:20;;;;;;;1279.05;680.00;;;22.90;99.90;;;;;;6351481;22;20022;-91
2023/08/26 15:55:42;;;;;;;0.75;0.20;;;22.20;99.90;;;;;;6356057;22;20023;-86
2023/08/26 15:58:13;;;;;;;1.02;0.22;;;22.00;99.90;;;;;;6351846;22;20023;-86
2023/08/26 16:00:40;;;;;;;0.50;0.25;;;21.90;99.90;;;;;;6351514;22;20207;-85
2023/08/26 16:03:08;;;;;;;0.55;0.30;;;21.60;99.90;;;;;;6355684;22;20024;-91
2023/08/26 16:05:35;;;;;;;0.30;0.28;;;21.50;99.90;;;;;;6359622;22;20009;-88
2023/08/26 16:08:02;;;;;;;0.60;0.30;;;21.40;99.90;;;;;;6361240;22;20055;-85
2023/08/26 16:10:32;;;;;;;0.77;0.20;;;21.30;99.90;;;;;;6334840;22;20022;-86
2023/08/26 16:20:20;;;;;;;0.60;0.30;;;21.00;99.90;;;;;;6352456;22;20014;-84
2023/08/26 16:22:46;;;;;;;0.20;0.20;;;20.80;99.90;;;;;;6353206;22;20027;-85
2023/08/26 16:25:12;;;;;;;0.20;0.10;;;20.70;99.90;;;;;;6357890;22;20010;-86
2023/08/26 16:27:37;;;;;;;0.73;0.30;;;20.70;99.90;;;;;;6330075;22;20052;-84
2023/08/26 16:30:05;;;;;;;0.75;0.30;;;20.60;99.90;;;;;;6357386;22;20011;-84
2023/08/26 16:32:43;;;;;;;0.45;0.30;;;20.50;99.90;;;;;;6329887;22;20054;-87
2023/08/26 16:35:09;;;;;;;0.43;0.40;;;20.50;99.90;;;;;;6358711;22;20058;-88
2023/08/26 16:37:50;;;;;;;1.67;0.30;;;20.40;99.90;;;;;;6344993;22;20014;-89
2023/08/26 16:40:16;;;;;;;0.63;0.30;;;20.30;99.90;;;;;;6314111;22;20022;-84
2023/08/26 16:42:45;;;;;;;1.65;0.30;;;20.30;99.90;;;;;;6342375;22;20049;-89
2023/08/26 16:45:27;;;;;;;0.20;0.13;;;20.20;99.90;;;;;;6353760;22;20509;-92
2023/08/26 16:48:07;;;;;;;0.88;0.40;;;20.20;99.90;;;;;;6323202;22;20014;-92
2023/08/26 16:50:39;;;;;;;0.73;0.43;;;20.10;99.90;;;;;;6323992;22;20021;-91
2023/08/26 16:53:38;;;;;;;0.43;0.40;;;20.10;99.90;;;;;;6349043;22;20015;-89
2023/08/26 16:56:20;;;;;;;0.43;0.32;;;20.00;99.90;;;;;;6348238;22;20015;-91
2023/08/26 16:59:10;;;;;;;3.38;0.43;;;19.90;99.90;;;;;;6326866;22;20034;-90
2023/08/26 17:01:56;;;;;;;0.50;0.30;;;19.70;99.90;;;;;;6353368;22;20015;-92
2023/08/26 17:04:26;;;;;;;0.70;0.30;;;19.80;99.90;;;;;;6350862;22;20038;-92
2023/08/26 17:06:55;;;;;;;3.15;0.40;;;19.70;99.90;;;;;;6350900;22;20437;-92
2023/08/26 17:10:13;;;;;;;0.70;0.40;;;19.70;99.90;;;;;;6353535;22;20088;-90
2023/08/26 17:13:03;;;;;;;0.55;0.40;;;19.60;99.90;;;;;;6303712;22;20026;-88
2023/08/26 17:15:48;;;;;;;0.63;0.40;;;19.50;99.90;;;;;;6352361;22;20019;-91
2023/08/26 17:18:14;;;;;;;1.15;0.30;;;19.40;99.90;;;;;;6267022;22;20018;-85
2023/08/26 17:20:40;;;;;;;0.38;0.28;;;19.40;99.90;;;;;;6336954;22;20518;-87
2023/08/26 17:23:18;;;;;;;0.80;0.40;;;19.30;99.90;;;;;;6317838;22;20021;-87
2023/08/26 17:33:51;;;;;;;;;;;;;;;;;;;;;
2023/08/26 17:36:35;;;;;;;0.73;0.30;;;19.20;99.90;;;;;;6245263;22;20019;-89
2023/08/26 17:39:19;;;;;;;1.85;0.45;;;19.10;99.90;;;;;;6318890;22;20019;-87
2023/08/26 17:43:07;;;;;;;1.13;0.50;;;19.10;99.90;;;;;;6345162;22;20015;-89
2023/08/26 17:46:02;;;;;;;1.35;0.50;;;19.10;99.90;;;;;;6309661;22;20098;-87
2023/08/26 17:48:36;;;;;;;0.60;0.50;;;19.00;99.90;;;;;;6259408;22;20015;-89
2023/08/26 17:51:05;;;;;;;1.10;0.70;;;19.00;99.90;;;;;;6254851;22;20446;-87
2023/08/26 17:54:00;;;;;;;2.50;1.10;;;19.00;99.90;;;;;;6256351;22;20016;-86
2023/08/26 18:33:10;;;;;;;;;;;18.00;99.90;;;;;;5113995;27;20416;-86
2023/08/26 18:35:35;;;;;;;46.50;43.53;;;17.90;99.90;;;;;;5095185;28;19920;-86
2023/08/26 18:38:34;;;;;;;170.30;144.60;;;17.80;99.90;;;;;;5095679;28;20078;-87
2023/08/26 18:41:41;;;;;;;206.50;185.43;;;17.70;99.90;;;;;;5035231;28;20512;-87
2023/08/26 18:48:09;;;;;;;1.13;0.60;;;17.50;99.90;;;;;;5075158;28;20376;-86
2023/08/26 18:50:58;;;;;;;0.75;0.52;;;17.30;99.90;;;;;;5075812;28;20098;-86
2023/08/26 18:57:56;;;;;;;1080.75;621.55;;;17.00;99.90;;;;;;4997142;28;20085;-86
2023/08/26 19:00:36;;;;;;;821.85;383.52;;;17.30;99.90;;;;;;4982349;28;20073;-88
2023/08/26 19:03:36;;;;;;;1.15;0.50;;;16.80;99.90;;;;;;4997185;28;20561;-88
2023/08/26 19:06:46;;;;;;;;;;;;;;;;;;;;;
2023/08/26 19:09:16;;;;;;;0.75;0.75;;;16.50;99.90;;;;;;4957891;29;20051;-86
2023/08/26 19:30:59;;;;;;;0.80;0.65;;;15.40;99.90;;;;;;4959108;28;20046;-90
2023/08/26 19:34:18;;;;;;;0.73;0.60;;;15.50;99.90;;;;;;4940367;29;20050;-90
2023/08/26 19:37:25;;;;;;;1.60;0.65;;;15.50;99.90;;;;;;4911466;29;20071;-90
2023/08/26 19:40:17;;;;;;;0.88;0.60;;;15.50;99.90;;;;;;4917753;29;20060;-87
2023/08/26 19:43:24;;;;;;;0.70;0.50;;;15.40;99.90;;;;;;4922186;28;20111;-88
2023/08/26 19:47:08;;;;;;;1017.13;508.60;;;15.20;99.90;;;;;;4923396;29;20133;-90
2023/08/26 19:53:52;;;;;;;;;;;;;;;;;;;;;
2023/08/26 20:00:26;;;;;;;844.33;377.37;;;15.00;99.90;;;;;;4852317;29;20316;-88
2023/08/26 20:03:23;;;;;;;2.28;1.27;;;14.90;99.90;;;;;;4882586;29;20053;-90
2023/08/26 20:05:51;;;;;;;2.78;1.00;;;14.90;99.90;;;;;;4873985;29;20058;-89
2023/08/26 20:08:21;;;;;;;1.77;0.85;;;14.90;99.90;;;;;;4852505;29;20120;-89
2023/08/26 20:11:08;;;;;;;0.85;0.70;;;14.90;99.90;;;;;;4857799;29;20578;-88
2023/08/26 20:13:52;;;;;;;1.38;0.65;;;14.80;99.90;;;;;;4864674;29;20069;-88
2023/08/26 20:16:48;;;;;;;1.08;0.90;;;14.90;99.90;;;;;;4823756;29;20522;-87
2023/08/26 20:19:18;;;;;;;0.65;0.60;;;14.90;99.90;;;;;;4847208;29;20079;-87
2023/08/26 20:21:51;;;;;;;1.52;0.95;;;14.90;99.90;;;;;;4861655;29;20125;-88
2023/08/26 20:24:23;;;;;;;0.82;0.75;;;14.80;99.90;;;;;;4902345;29;20124;-88
2023/08/26 20:26:54;;;;;;;1.17;0.77;;;14.80;99.90;;;;;;4955683;28;20347;-87
2023/08/26 20:33:31;;;;;;;1.08;0.63;;;14.80;99.90;;;;;;5007763;28;20057;-88
2023/08/26 20:36:03;;;;;;;1.55;0.70;;;14.80;99.90;;;;;;5004974;28;20045;-87
2023/08/26 20:38:41;;;;;;;7.47;2.80;;;14.80;99.90;;;;;;5001008;28;20037;-89
2023/08/26 20:41:23;;;;;;;132.88;117.28;;;14.70;99.90;;;;;;5022167;28;20060;-89
2023/08/26 20:47:35;;;;;;;0.88;0.50;;;14.60;99.90;;;;;;5127429;28;20046;-90
2023/08/26 20:50:09;;;;;;;0.60;0.60;;;14.60;99.90;;;;;;5111024;28;20063;-91
2023/08/26 20:52:40;;;;;;;1.13;0.60;;;14.60;99.90;;;;;;5110480;28;20039;-91
2023/08/26 20:55:07;;;;;;;0.95;0.77;;;14.60;99.90;;;;;;5096845;28;20051;-93
2023/08/26 20:57:38;;;;;;;0.95;0.70;;;14.50;99.90;;;;;;5114445;28;20039;-92
2023/08/26 21:00:11;;;;;;;1.08;0.70;;;14.40;99.90;;;;;;5126493;28;20032;-93
2023/08/26 21:02:37;;;;;;;1.10;0.70;;;14.40;99.90;;;;;;5109865;28;20081;-93
2023/08/26 21:05:09;;;;;;;2.25;0.90;;;14.30;99.90;;;;;;5124896;28;20044;-92
2023/08/26 21:07:53;;;;;;;1.17;0.88;;;14.40;99.90;;;;;;5108214;28;20090;-90
2023/08/26 21:10:34;;;;;;;2.50;0.88;;;14.30;99.90;;;;;;5098120;28;20107;-89
2023/08/26 21:13:04;;;;;;;1.55;0.82;;;14.20;99.90;;;;;;5092970;28;20072;-92
2023/08/26 21:15:30;;;;;;;0.70;0.65;;;14.10;99.90;;;;;;5090140;28;20120;-93
2023/08/26 21:18:05;;;;;;;0.80;0.50;;;14.20;99.90;;;;;;5090490;28;20043;-92
2023/08/26 21:20:31;;;;;;;1.13;0.50;;;14.10;99.90;;;;;;5111869;28;20128;-92
2023/08/26 21:22:57;;;;;;;0.73;0.63;;;14.10;99.90;;;;;;5089733;27;20078;-93
2023/08/26 21:25:23;;;;;;;0.77;0.70;;;14.10;99.90;;;;;;5091948;28;20047;-93
2023/08/26 21:35:37;;;;;;;0.52;0.50;;;14.00;99.90;;;;;;5093805;28;20046;-91
2023/08/26 21:38:03;;;;;;;1.55;0.50;;;13.90;99.90;;;;;;5114244;28;20051;-92
2023/08/26 21:40:31;;;;;;;0.60;0.50;;;13.90;99.90;;;;;;5089151;28;20483;-92
2023/08/26 21:43:09;;;;;;;1.93;0.40;;;13.80;99.90;;;;;;5109056;28;20039;-93
2023/08/26 21:45:35;;;;;;;0.85;0.85;;;13.90;99.90;;;;;;5096491;28;20091;-93
2023/08/26 21:48:02;;;;;;;1.40;0.82;;;13.60;99.90;;;;;;5112232;28;20098;-90
2023/08/26 21:51:07;;;;;;;1.83;0.98;;;13.60;99.90;;;;;;5092760;28;20044;-92
2023/08/26 21:53:33;;;;;;;0.80;0.70;;;13.50;99.90;;;;;;5127995;28;20047;-89
2023/08/26 21:55:59;;;;;;;1.20;0.90;;;13.50;99.90;;;;;;5115396;28;20058;-93
2023/08/26 21:58:25;;;;;;;1.23;0.90;;;13.40;99.90;;;;;;5113803;28;20036;-91
2023/08/26 22:00:51;;;;;;;1.92;0.85;;;13.40;99.90;;;;;;5115807;28;20112;-89
2023/08/26 22:03:17;;;;;;;1.40;0.80;;;13.40;99.90;;;;;;5135056;28;20027;-93
2023/08/26 22:05:46;;;;;;;1.45;1.15;;;13.40;99.90;;;;;;5117832;28;20043;-93
2023/08/26 22:08:12;;;;;;;1.20;1.10;;;13.30;99.90;;;;;;5100976;28;20074;-94
2023/08/26 22:10:38;;;;;;;1.85;0.85;;;13.40;99.90;;;;;;5099912;28;20051;-93
2023/08/26 22:13:05;;;;;;;1.30;0.93;;;13.40;99.90;;;;;;5131678;28;20050;-92
2023/08/26 22:15:34;;;;;;;1.73;0.95;;;13.40;99.90;;;;;;5109310;28;20072;-95
2023/08/26 22:18:00;;;;;;;1.80;1.23;;;13.30;99.90;;;;;;5094984;28;20116;-91
2023/08/26 22:20:29;;;;;;;1.92;1.00;;;13.30;99.90;;;;;;5095798;28;20487;-91
2023/08/26 22:22:55;;;;;;;2.35;1.23;;;13.30;99.90;;;;;;5110921;28;20035;-91
2023/08/26 22:25:20;;;;;;;1.48;1.00;;;13.30;99.90;;;;;;5075971;28;20056;-86
2023/08/26 22:27:49;;;;;;;1.40;1.20;;;13.20;99.90;;;;;;5092760;28;20068;-92
2023/08/26 22:30:21;;;;;;;2.10;1.23;;;13.20;99.90;;;;;;5109343;28;20050;-93
2023/08/26 22:32:49;;;;;;;1.95;1.13;;;13.10;99.90;;;;;;5092485;28;20103;-94
2023/08/26 22:35:15;;;;;;;1.45;1.05;;;13.10;99.90;;;;;;5077119;28;20048;-93
2023/08/26 22:37:42;;;;;;;2.60;1.20;;;13.10;99.90;;;;;;5088378;28;20114;-91
2023/08/26 22:40:13;;;;;;;1.38;1.10;;;13.10;99.90;;;;;;5070405;28;20040;-92
2023/08/26 22:42:39;;;;;;;1.90;1.15;;;13.20;99.90;;;;;;5086641;28;20037;-92
2023/08/26 22:48:49;;;;;;;1.00;0.80;;;13.10;99.90;;;;;;5085901;28;20031;-93
2023/08/26 22:51:18;;;;;;;0.88;0.80;;;13.10;99.90;;;;;;5085064;28;20047;-92
2023/08/26 22:53:47;;;;;;;0.73;0.68;;;13.10;99.90;;;;;;5058463;28;20405;-93
2023/08/26 22:56:13;;;;;;;1.02;0.77;;;13.10;99.90;;;;;;5071584;28;20078;-92
2023/08/26 22:58:39;;;;;;;1.48;1.10;;;13.10;99.90;;;;;;5067896;28;20102;-92
2023/08/26 23:01:09;;;;;;;1.33;1.15;;;12.90;99.90;;;;;;5086601;28;20048;-92
2023/08/26 23:03:38;;;;;;;1.23;0.90;;;13.10;99.90;;;;;;5086748;28;20040;-91
2023/08/26 23:06:04;;;;;;;1.50;1.08;;;13.10;99.90;;;;;;5089987;28;20056;-91
2023/08/26 23:08:30;;;;;;;1.75;1.30;;;13.10;99.90;;;;;;5087826;28;20420;-91
2023/08/26 23:10:58;;;;;;;1.02;0.90;;;13.10;99.90;;;;;;5071195;28;20048;-93
2023/08/26 23:13:26;;;;;;;1.15;0.95;;;13.00;99.90;;;;;;5089705;28;20058;-91
2023/08/26 23:15:52;;;;;;;1.08;0.90;;;13.00;99.90;;;;;;5091248;28;20048;-91
2023/08/26 23:18:29;;;;;;;1.60;0.70;;;13.00;99.90;;;;;;5094020;28;20082;-93
2023/08/26 23:20:58;;;;;;;1.33;1.10;;;13.00;99.90;;;;;;5093815;28;20625;-93
2023/08/26 23:23:31;;;;;;;1.58;1.00;;;13.00;99.90;;;;;;5088683;28;20037;-93
2023/08/26 23:26:00;;;;;;;1.05;0.75;;;12.90;99.90;;;;;;5073544;28;20075;-93
2023/08/26 23:41:00;;;;;;;1.48;1.17;;;12.90;99.90;;;;;;5087154;28;20831;-92
2023/08/26 23:43:26;;;;;;;2.08;1.40;;;13.00;99.90;;;;;;5075408;28;20135;-92
2023/08/26 23:45:57;;;;;;;3.35;1.05;;;12.80;99.90;;;;;;5086654;28;20044;-89
2023/08/26 23:48:28;;;;;;;2.22;1.40;;;12.80;99.90;;;;;;5085471;28;20488;-93
2023/08/26 23:51:08;;;;;;;1.95;1.10;;;12.80;99.90;;;;;;5090495;28;20052;-93
2023/08/26 23:53:43;;;;;;;1.30;0.70;;;12.80;99.90;;;;;;5085858;28;20136;-93
2023/08/26 23:56:20;;;;;;;1.00;0.73;;;12.80;99.90;;;;;;5090680;28;20044;-92
2023/08/26 23:59:11;;;;;;;3.47;1.15;;;12.80;99.90;;;;;;5091842;28;20063;-92
